< < Back
Terminal Aerodrome Forecast


Current Version              Previous Versions:   1  2  3  4  5  6  7  8  9  

Terminal Aerodrome Forecast

854
FTUS42 KCAE 241100
TAFCAE
TAF
KCAE 241122Z 2412/2512 00000KT P6SM SCT200
     FM241500 VRB04KT P6SM BKN200=

Latest METAR

445
SAUS80 KWBC 241900
MTRCAE
METAR KCAE 241856Z 33006KT 10SM FEW080 SCT150 SCT220 22/04 A3000 RMK AO2
SLP157 VIRGA T02170044


USA.gov is the U.S. government's official web portal to all federal, state and local government web resources and services.